Time;durP1;ratioP1;P1;durP2;ratioP2;P2;SDS_P1;SDS_P2;PMS_P1;PMS_P2;Temp;Humidity;BMP_temperature;BMP_pressure;BME280_temperature;BME280_humidity;BME280_pressure;Samples;Min_cycle;Max_cycle;Signal;HPM_P1;HPM_P2
2023/01/04 00:01:00;;;;;;;12.55;2.78;;;;;;;;;;6311400;22;20077;-82
2023/01/04 00:03:27;;;;;;;11.15;2.40;;;;;;;;;;6338811;22;20023;-82
2023/01/04 00:05:56;;;;;;;10.23;2.55;;;;;;;;;;6310957;22;20025;-81
2023/01/04 00:08:22;;;;;;;6.93;2.50;;;;;;;;;;6339012;22;20028;-80
2023/01/04 00:10:49;;;;;;;11.20;2.45;;;;;;;;;;6340189;22;20028;-83
2023/01/04 00:13:15;;;;;;;8.30;2.55;;;;;;;;;;6339061;22;20023;-82
2023/01/04 00:15:41;;;;;;;11.98;2.42;;;;;;;;;;6338871;22;20094;-82
2023/01/04 00:18:08;;;;;;;8.00;2.50;;;;;;;;;;6337410;22;20036;-81
2023/01/04 00:20:34;;;;;;;10.93;2.63;;;;;;;;;;6312169;22;20623;-82
2023/01/04 00:23:01;;;;;;;13.68;2.45;;;;;;;;;;6337341;22;20023;-82
2023/01/04 00:25:27;;;;;;;8.98;2.40;;;;;;;;;;6339711;22;20031;-81
2023/01/04 00:27:53;;;;;;;7.05;2.67;;;;;;;;;;6338873;22;20553;-82
2023/01/04 00:30:20;;;;;;;10.75;2.95;;;;;;;;;;6311130;22;20464;-84
2023/01/04 00:32:46;;;;;;;11.82;3.00;;;;;;;;;;6336707;22;20027;-84
2023/01/04 00:35:12;;;;;;;9.90;2.67;;;;;;;;;;6338192;22;20027;-83
2023/01/04 00:38:00;;;;;;;10.90;2.65;;;;;;;;;;6337885;22;20031;-82
2023/01/04 00:40:26;;;;;;;12.25;2.80;;;;;;;;;;6337465;22;20035;-85
2023/01/04 00:42:53;;;;;;;14.23;2.75;;;;;;;;;;6310344;22;20027;-83
2023/01/04 00:45:19;;;;;;;11.57;2.60;;;;;;;;;;6309873;22;20073;-82
2023/01/04 00:47:45;;;;;;;6.88;2.10;;;;;;;;;;6339157;22;20129;-82
2023/01/04 00:50:12;;;;;;;7.47;2.65;;;;;;;;;;6338178;22;20388;-82
2023/01/04 00:52:38;;;;;;;11.43;2.60;;;;;;;;;;6338164;22;20102;-82
2023/01/04 00:55:05;;;;;;;6.53;2.75;;;;;;;;;;6310029;22;20023;-82
2023/01/04 00:57:31;;;;;;;8.52;2.88;;;;;;;;;;6337381;22;20138;-83
2023/01/04 00:59:57;;;;;;;6.25;2.25;;;;;;;;;;6338686;22;20391;-83
2023/01/04 01:02:24;;;;;;;7.22;2.20;;;;;;;;;;6337435;22;20023;-83
2023/01/04 01:04:50;;;;;;;7.03;2.50;;;;;;;;;;6339133;22;20487;-81
2023/01/04 01:07:17;;;;;;;7.55;2.47;;;;;;;;;;6311499;22;20444;-82
2023/01/04 01:09:43;;;;;;;6.28;2.42;;;;;;;;;;6339487;22;20023;-81
2023/01/04 01:12:09;;;;;;;6.70;2.70;;;;;;;;;;6337673;22;20924;-82
2023/01/04 01:14:36;;;;;;;6.43;1.90;;;;;;;;;;6311507;22;20023;-83
2023/01/04 01:17:02;;;;;;;6.53;2.40;;;;;;;;;;6340597;22;20491;-81
2023/01/04 01:19:29;;;;;;;6.50;2.30;;;;;;;;;;6342419;22;20027;-82
2023/01/04 01:21:56;;;;;;;8.63;2.45;;;;;;;;;;6340492;22;20020;-82
2023/01/04 01:24:23;;;;;;;9.65;2.40;;;;;;;;;;6312620;22;20031;-82
2023/01/04 01:26:50;;;;;;;6.32;2.17;;;;;;;;;;6339763;22;20079;-81
2023/01/04 01:29:16;;;;;;;7.53;2.20;;;;;;;;;;6313199;22;20022;-81
2023/01/04 01:31:42;;;;;;;6.38;1.92;;;;;;;;;;6341374;22;20023;-81
2023/01/04 01:34:09;;;;;;;5.50;2.33;;;;;;;;;;6312042;22;20080;-81
2023/01/04 01:36:35;;;;;;;6.50;1.88;;;;;;;;;;6311325;22;20102;-81
2023/01/04 01:39:02;;;;;;;5.00;2.28;;;;;;;;;;6339686;22;20030;-80
2023/01/04 01:41:30;;;;;;;8.55;2.67;;;;;;;;;;6340758;22;20011;-80
2023/01/04 01:43:56;;;;;;;6.22;2.55;;;;;;;;;;6340501;22;20028;-80
2023/01/04 01:46:42;;;;;;;5.25;2.53;;;;;;;;;;6340464;22;20027;-80
2023/01/04 01:49:31;;;;;;;8.75;2.85;;;;;;;;;;6337936;22;20026;-82
2023/01/04 01:52:00;;;;;;;5.38;2.22;;;;;;;;;;6323616;22;20050;-80
2023/01/04 01:54:33;;;;;;;5.47;2.67;;;;;;;;;;6340110;22;20022;-80
2023/01/04 01:57:00;;;;;;;5.65;2.40;;;;;;;;;;6340227;22;20011;-80
2023/01/04 01:59:28;;;;;;;5.88;2.50;;;;;;;;;;6339826;22;20027;-82
2023/01/04 02:01:54;;;;;;;4.32;2.38;;;;;;;;;;6339484;22;20548;-81
2023/01/04 02:04:21;;;;;;;6.07;2.70;;;;;;;;;;6337903;22;20023;-83
2023/01/04 02:06:49;;;;;;;6.18;2.92;;;;;;;;;;6339791;22;20023;-80
2023/01/04 02:09:16;;;;;;;8.30;2.70;;;;;;;;;;6340158;22;20007;-82
2023/01/04 02:11:42;;;;;;;4.65;2.60;;;;;;;;;;6339989;22;20054;-80
2023/01/04 02:14:27;;;;;;;8.43;2.90;;;;;;;;;;6339973;22;20047;-82
2023/01/04 02:17:12;;;;;;;7.28;2.70;;;;;;;;;;6340158;22;20576;-84
2023/01/04 02:19:57;;;;;;;8.65;3.22;;;;;;;;;;6339422;22;20023;-81
2023/01/04 02:22:53;;;;;;;7.32;3.03;;;;;;;;;;6339848;22;20022;-83
2023/01/04 02:25:35;;;;;;;7.45;3.30;;;;;;;;;;6228940;22;20028;-81
2023/01/04 02:28:08;;;;;;;7.35;3.00;;;;;;;;;;6313358;22;20027;-81
2023/01/04 02:30:44;;;;;;;6.68;3.10;;;;;;;;;;6341742;22;20785;-81
2023/01/04 02:33:16;;;;;;;5.80;3.15;;;;;;;;;;6340294;22;20101;-81
2023/01/04 02:35:52;;;;;;;6.28;3.40;;;;;;;;;;6339175;22;20022;-83
2023/01/04 02:38:27;;;;;;;6.20;3.28;;;;;;;;;;6339968;22;20026;-80
2023/01/04 02:40:54;;;;;;;8.40;3.40;;;;;;;;;;6340930;22;20073;-81
2023/01/04 02:46:14;;;;;;;7.18;3.90;;;;;;;;;;6339583;22;20027;-81
2023/01/04 02:51:30;;;;;;;7.20;3.65;;;;;;;;;;6340788;22;20024;-81
2023/01/04 02:53:58;;;;;;;10.15;4.00;;;;;;;;;;6311501;22;20105;-80
2023/01/04 02:56:48;;;;;;;7.88;4.10;;;;;;;;;;6339654;22;20011;-81
2023/01/04 02:59:33;;;;;;;6.68;3.90;;;;;;;;;;6323921;22;20015;-82
2023/01/04 03:07:59;;;;;;;6.47;3.38;;;;;;;;;;6337073;22;20054;-80
2023/01/04 03:10:51;;;;;;;7.70;4.20;;;;;;;;;;6312988;22;20024;-81
2023/01/04 03:13:24;;;;;;;9.23;4.30;;;;;;;;;;6340007;22;20593;-80
2023/01/04 03:15:58;;;;;;;7.28;3.80;;;;;;;;;;6312601;22;20010;-81
2023/01/04 03:18:32;;;;;;;6.82;4.07;;;;;;;;;;6338637;22;20027;-80
2023/01/04 03:21:00;;;;;;;8.30;4.60;;;;;;;;;;6312297;22;20440;-80
2023/01/04 03:37:33;;;;;;;9.05;5.20;;;;;;;;;;6337952;22;20023;-80
2023/01/04 03:49:01;;;;;;;10.98;5.50;;;;;;;;;;6338864;22;20810;-84
2023/01/04 03:51:29;;;;;;;10.32;5.10;;;;;;;;;;6340555;22;20014;-81
2023/01/04 03:54:03;;;;;;;11.10;5.22;;;;;;;;;;6341000;22;20551;-82
2023/01/04 03:56:30;;;;;;;10.43;5.00;;;;;;;;;;6340034;22;20566;-81
2023/01/04 03:58:57;;;;;;;8.95;5.30;;;;;;;;;;6339650;22;20031;-80
2023/01/04 04:01:25;;;;;;;9.15;5.10;;;;;;;;;;6339709;22;20023;-82
2023/01/04 04:09:21;;;;;;;8.95;5.25;;;;;;;;;;6341221;22;20058;-80
2023/01/04 04:11:48;;;;;;;8.95;5.13;;;;;;;;;;6312783;22;20094;-84
2023/01/04 04:14:15;;;;;;;8.38;4.90;;;;;;;;;;6314116;22;20023;-81
2023/01/04 04:16:42;;;;;;;8.02;4.72;;;;;;;;;;6341600;22;20099;-80
2023/01/04 04:19:08;;;;;;;8.32;4.72;;;;;;;;;;6341424;22;20106;-83
2023/01/04 04:21:35;;;;;;;8.70;4.97;;;;;;;;;;6342038;22;20030;-83
2023/01/04 04:24:01;;;;;;;7.85;4.57;;;;;;;;;;6311944;22;20023;-81
2023/01/04 04:26:28;;;;;;;9.00;5.03;;;;;;;;;;6337542;22;20059;-80
2023/01/04 04:28:54;;;;;;;7.47;4.53;;;;;;;;;;6342080;22;20055;-81
2023/01/04 04:31:20;;;;;;;7.25;4.78;;;;;;;;;;6342037;22;20023;-81
2023/01/04 04:33:47;;;;;;;8.13;4.95;;;;;;;;;;6339755;22;20023;-86
2023/01/04 04:36:13;;;;;;;7.30;4.85;;;;;;;;;;6339156;22;20077;-83
2023/01/04 04:38:40;;;;;;;9.15;4.63;;;;;;;;;;6341284;22;20038;-83
2023/01/04 04:44:13;;;;;;;5.88;4.00;;;;;;;;;;6183081;23;20116;-82
2023/01/04 04:46:40;;;;;;;8.15;5.07;;;;;;;;;;6181947;23;20068;-84
2023/01/04 04:49:07;;;;;;;7.72;4.75;;;;;;;;;;6233913;22;20058;-82
2023/01/04 04:51:34;;;;;;;8.77;4.45;;;;;;;;;;6315118;22;20029;-85
2023/01/04 04:54:01;;;;;;;8.10;4.95;;;;;;;;;;6340790;22;20030;-85
2023/01/04 04:56:27;;;;;;;9.98;5.57;;;;;;;;;;6341061;22;20008;-81
2023/01/04 04:58:53;;;;;;;7.95;4.70;;;;;;;;;;6341170;22;20027;-82
2023/01/04 05:01:20;;;;;;;8.75;5.30;;;;;;;;;;6341284;22;20030;-81
2023/01/04 05:03:46;;;;;;;9.52;5.35;;;;;;;;;;6315275;22;20023;-85
2023/01/04 05:06:14;;;;;;;7.65;4.68;;;;;;;;;;6342121;22;20031;-85
2023/01/04 05:08:41;;;;;;;9.68;5.32;;;;;;;;;;6339813;22;20034;-84
2023/01/04 05:11:09;;;;;;;10.82;5.47;;;;;;;;;;6340732;22;20063;-82
2023/01/04 05:13:35;;;;;;;9.48;5.45;;;;;;;;;;6313241;22;20058;-84
2023/01/04 05:16:03;;;;;;;9.52;5.38;;;;;;;;;;6340629;22;20081;-81
2023/01/04 05:18:29;;;;;;;10.90;5.72;;;;;;;;;;6341183;22;20038;-85
2023/01/04 05:20:55;;;;;;;13.23;6.35;;;;;;;;;;6339737;22;20029;-85
2023/01/04 05:23:22;;;;;;;12.15;6.15;;;;;;;;;;6340538;22;20027;-82
2023/01/04 05:25:52;;;;;;;10.52;6.03;;;;;;;;;;6340579;22;20438;-82
2023/01/04 05:28:19;;;;;;;11.80;6.32;;;;;;;;;;6341643;22;20046;-81
2023/01/04 05:30:50;;;;;;;10.40;6.20;;;;;;;;;;6341375;22;20049;-82
2023/01/04 05:33:17;;;;;;;14.63;6.68;;;;;;;;;;6340443;22;20027;-84
2023/01/04 05:35:44;;;;;;;11.15;6.68;;;;;;;;;;6340876;22;20272;-82
2023/01/04 05:38:11;;;;;;;11.23;6.70;;;;;;;;;;6312702;22;20023;-83
2023/01/04 05:40:37;;;;;;;8.52;5.32;;;;;;;;;;6341524;22;20016;-82
2023/01/04 05:43:04;;;;;;;11.13;6.18;;;;;;;;;;6341617;22;20077;-81
2023/01/04 05:45:30;;;;;;;11.57;5.97;;;;;;;;;;6340052;22;20400;-82
2023/01/04 05:47:56;;;;;;;13.38;7.47;;;;;;;;;;6340285;22;20485;-83
2023/01/04 05:50:23;;;;;;;12.50;6.35;;;;;;;;;;6340720;22;20046;-86
2023/01/04 05:52:50;;;;;;;15.70;7.10;;;;;;;;;;6341076;22;20089;-82
2023/01/04 05:55:16;;;;;;;12.95;7.25;;;;;;;;;;6341570;22;20053;-83
2023/01/04 05:57:43;;;;;;;13.57;7.60;;;;;;;;;;6341052;22;20026;-82
2023/01/04 06:00:10;;;;;;;14.30;6.93;;;;;;;;;;6341837;22;20464;-84
2023/01/04 06:02:37;;;;;;;12.15;6.30;;;;;;;;;;6343676;22;20418;-83
2023/01/04 06:05:04;;;;;;;12.45;6.45;;;;;;;;;;6345446;22;20011;-83
2023/01/04 06:07:32;;;;;;;10.55;6.03;;;;;;;;;;6344821;22;20027;-82
2023/01/04 06:09:59;;;;;;;10.75;6.05;;;;;;;;;;6344372;22;21324;-82
2023/01/04 06:12:25;;;;;;;10.93;5.97;;;;;;;;;;6344317;22;20034;-81
2023/01/04 06:14:51;;;;;;;12.55;5.63;;;;;;;;;;6346511;22;20821;-82
2023/01/04 06:17:18;;;;;;;9.77;5.30;;;;;;;;;;6317232;22;20023;-83
2023/01/04 06:19:45;;;;;;;10.38;5.22;;;;;;;;;;6346022;22;20090;-84
2023/01/04 06:22:11;;;;;;;9.15;5.55;;;;;;;;;;6319679;22;20071;-82
2023/01/04 06:24:37;;;;;;;11.35;5.40;;;;;;;;;;6344017;22;20034;-84
2023/01/04 06:27:04;;;;;;;9.02;5.30;;;;;;;;;;6344994;22;20023;-82
2023/01/04 06:29:30;;;;;;;9.05;5.30;;;;;;;;;;6318809;22;20050;-83
2023/01/04 06:31:57;;;;;;;11.75;5.57;;;;;;;;;;6346332;22;20057;-82
2023/01/04 06:34:23;;;;;;;10.00;5.28;;;;;;;;;;6343725;22;20122;-82
2023/01/04 06:36:56;;;;;;;9.63;5.35;;;;;;;;;;6344935;22;20026;-82
2023/01/04 06:39:22;;;;;;;9.75;4.78;;;;;;;;;;6345548;22;20023;-81
2023/01/04 06:41:49;;;;;;;11.07;4.63;;;;;;;;;;6345049;22;20102;-81
2023/01/04 06:44:15;;;;;;;8.48;4.93;;;;;;;;;;6346010;22;20019;-82
2023/01/04 06:46:42;;;;;;;8.40;4.72;;;;;;;;;;6345901;22;20079;-81
2023/01/04 06:49:08;;;;;;;7.65;4.55;;;;;;;;;;6344613;22;20076;-83
2023/01/04 06:51:34;;;;;;;7.88;4.30;;;;;;;;;;6346233;22;20013;-86
2023/01/04 06:54:01;;;;;;;8.65;4.68;;;;;;;;;;6316853;22;20038;-83
2023/01/04 06:56:27;;;;;;;9.50;4.72;;;;;;;;;;6343815;22;20020;-82
2023/01/04 06:58:54;;;;;;;7.32;4.20;;;;;;;;;;6343450;22;20027;-83
2023/01/04 07:01:20;;;;;;;10.98;4.40;;;;;;;;;;6343609;22;20878;-84
2023/01/04 07:03:46;;;;;;;11.25;4.85;;;;;;;;;;6346101;22;20031;-82
2023/01/04 07:06:13;;;;;;;9.57;3.47;;;;;;;;;;6344262;22;20028;-85
2023/01/04 07:08:39;;;;;;;9.13;3.58;;;;;;;;;;6318543;22;20022;-84
2023/01/04 07:11:05;;;;;;;7.07;3.70;;;;;;;;;;6345025;22;20011;-82
2023/01/04 07:13:32;;;;;;;9.77;4.30;;;;;;;;;;6345579;22;20027;-83
2023/01/04 07:15:58;;;;;;;9.60;3.92;;;;;;;;;;6344341;22;20023;-82
2023/01/04 07:18:25;;;;;;;8.32;3.42;;;;;;;;;;6316537;22;20034;-82
2023/01/04 07:20:51;;;;;;;10.05;4.43;;;;;;;;;;6345709;22;20023;-81
2023/01/04 07:23:17;;;;;;;11.05;4.20;;;;;;;;;;6344842;22;20023;-82
2023/01/04 07:25:44;;;;;;;11.73;4.00;;;;;;;;;;6318484;22;20479;-85
2023/01/04 07:28:10;;;;;;;8.88;3.90;;;;;;;;;;6345350;22;20965;-83
2023/01/04 07:30:37;;;;;;;9.88;3.75;;;;;;;;;;6317652;22;20038;-84
2023/01/04 07:33:03;;;;;;;11.90;4.82;;;;;;;;;;6346092;22;20067;-83
2023/01/04 07:35:32;;;;;;;10.60;4.18;;;;;;;;;;6344980;22;20019;-83
2023/01/04 07:37:59;;;;;;;10.43;3.45;;;;;;;;;;6345477;22;20054;-84
2023/01/04 07:40:25;;;;;;;7.93;2.88;;;;;;;;;;6344431;22;20011;-83
2023/01/04 07:42:56;;;;;;;5.72;2.78;;;;;;;;;;6343045;22;20023;-84
2023/01/04 07:45:22;;;;;;;9.05;3.00;;;;;;;;;;6346486;22;20034;-81
2023/01/04 07:47:51;;;;;;;9.75;2.90;;;;;;;;;;6347065;22;20027;-81
2023/01/04 07:50:18;;;;;;;7.10;2.83;;;;;;;;;;6348020;22;20085;-82
2023/01/04 07:52:44;;;;;;;8.27;2.63;;;;;;;;;;6345110;22;20036;-82
2023/01/04 07:55:10;;;;;;;11.10;3.15;;;;;;;;;;6343488;22;20031;-82
2023/01/04 07:57:37;;;;;;;6.72;2.95;;;;;;;;;;6318780;22;20117;-83
2023/01/04 08:00:04;;;;;;;7.60;2.80;;;;;;;;;;6344849;22;20508;-83
2023/01/04 08:02:30;;;;;;;8.73;3.05;;;;;;;;;;6345279;22;20019;-83
2023/01/04 08:04:57;;;;;;;8.57;2.92;;;;;;;;;;6316325;22;20007;-82
2023/01/04 08:07:23;;;;;;;8.68;3.03;;;;;;;;;;6318591;22;20480;-83
2023/01/04 08:09:49;;;;;;;11.60;3.17;;;;;;;;;;6345399;22;20026;-83
2023/01/04 08:12:16;;;;;;;9.82;3.20;;;;;;;;;;6344509;22;20015;-82
2023/01/04 08:14:42;;;;;;;10.93;3.08;;;;;;;;;;6341188;22;20023;-82
2023/01/04 08:17:08;;;;;;;5.53;2.67;;;;;;;;;;6344983;22;20034;-81
2023/01/04 08:19:35;;;;;;;7.80;2.83;;;;;;;;;;6345981;22;20026;-86
2023/01/04 08:22:01;;;;;;;6.32;2.63;;;;;;;;;;6348134;22;20921;-86
2023/01/04 08:24:29;;;;;;;11.18;2.83;;;;;;;;;;6348760;22;20031;-88
2023/01/04 08:26:56;;;;;;;5.68;2.80;;;;;;;;;;6342511;22;20062;-83
2023/01/04 08:29:25;;;;;;;6.75;2.60;;;;;;;;;;6317094;22;20082;-83
2023/01/04 08:31:59;;;;;;;7.13;2.50;;;;;;;;;;6344655;22;20038;-86
2023/01/04 08:34:26;;;;;;;5.97;2.40;;;;;;;;;;6317131;22;20027;-85
2023/01/04 08:36:52;;;;;;;6.95;2.80;;;;;;;;;;6314064;22;20034;-84
2023/01/04 08:39:20;;;;;;;7.18;2.60;;;;;;;;;;6342561;22;20050;-84
2023/01/04 08:41:49;;;;;;;8.45;2.47;;;;;;;;;;6340703;22;20514;-84
2023/01/04 08:44:33;;;;;;;5.75;2.45;;;;;;;;;;6319020;22;20428;-84
2023/01/04 08:47:00;;;;;;;5.00;2.25;;;;;;;;;;6343710;22;20449;-85
2023/01/04 08:49:27;;;;;;;6.72;2.60;;;;;;;;;;6315108;22;20102;-85
2023/01/04 08:51:54;;;;;;;4.30;1.92;;;;;;;;;;6316064;22;20561;-83
2023/01/04 08:54:21;;;;;;;4.85;2.10;;;;;;;;;;6342950;22;20026;-85
2023/01/04 08:56:50;;;;;;;5.97;2.63;;;;;;;;;;6312709;22;20023;-85
2023/01/04 08:59:23;;;;;;;7.45;2.55;;;;;;;;;;6339834;22;20027;-87
2023/01/04 09:01:49;;;;;;;7.75;2.42;;;;;;;;;;6339484;22;20535;-87
2023/01/04 09:04:16;;;;;;;7.18;2.58;;;;;;;;;;6346057;22;20027;-84
2023/01/04 09:06:42;;;;;;;5.03;2.50;;;;;;;;;;6342722;22;20050;-84
2023/01/04 09:09:09;;;;;;;5.10;2.17;;;;;;;;;;6316361;22;20067;-82
2023/01/04 09:11:36;;;;;;;7.65;2.60;;;;;;;;;;6338149;22;20114;-84
2023/01/04 09:14:41;;;;;;;8.27;3.00;;;;;;;;;;6338583;22;20449;-86
2023/01/04 09:17:17;;;;;;;7.63;2.83;;;;;;;;;;6340315;22;20069;-85
2023/01/04 09:19:44;;;;;;;7.72;3.13;;;;;;;;;;6337902;22;20307;-85
2023/01/04 09:22:11;;;;;;;7.57;3.45;;;;;;;;;;6342203;22;20027;-84
2023/01/04 09:24:37;;;;;;;7.53;3.50;;;;;;;;;;6341000;22;20031;-86
2023/01/04 09:27:04;;;;;;;8.27;3.42;;;;;;;;;;6313032;22;20023;-85
2023/01/04 09:29:30;;;;;;;8.05;3.55;;;;;;;;;;6341173;22;20029;-85
2023/01/04 09:31:57;;;;;;;6.68;3.47;;;;;;;;;;6341385;22;20035;-86
2023/01/04 09:34:23;;;;;;;7.70;3.40;;;;;;;;;;6340642;22;20019;-85
2023/01/04 09:36:50;;;;;;;12.43;4.40;;;;;;;;;;6342139;22;20067;-85
2023/01/04 09:39:17;;;;;;;8.73;3.75;;;;;;;;;;6343977;22;20027;-84
2023/01/04 09:41:54;;;;;;;8.85;3.90;;;;;;;;;;6345609;22;20042;-83
2023/01/04 09:44:29;;;;;;;9.73;3.60;;;;;;;;;;6345226;22;20038;-84
2023/01/04 09:47:19;;;;;;;6.00;2.90;;;;;;;;;;6345725;22;20073;-84
2023/01/04 09:49:48;;;;;;;10.05;4.07;;;;;;;;;;6345029;22;20027;-85
2023/01/04 09:52:18;;;;;;;10.00;3.42;;;;;;;;;;6344413;22;20480;-84
2023/01/04 09:54:54;;;;;;;7.00;2.95;;;;;;;;;;6344289;22;20011;-84
2023/01/04 09:57:31;;;;;;;6.97;3.35;;;;;;;;;;6345065;22;20058;-82
2023/01/04 10:00:14;;;;;;;9.07;3.35;;;;;;;;;;6344382;22;20118;-82
2023/01/04 10:03:07;;;;;;;9.27;3.28;;;;;;;;;;6345641;22;20055;-83
2023/01/04 10:05:33;;;;;;;7.93;3.90;;;;;;;;;;6281571;22;20029;-84
2023/01/04 10:08:00;;;;;;;8.00;3.60;;;;;;;;;;6318630;22;20102;-84
2023/01/04 10:10:46;;;;;;;9.32;3.63;;;;;;;;;;6317654;22;20063;-82
2023/01/04 10:13:27;;;;;;;9.27;3.38;;;;;;;;;;6315362;22;20014;-82
2023/01/04 10:16:12;;;;;;;7.63;3.25;;;;;;;;;;6344500;22;20015;-83
2023/01/04 10:18:50;;;;;;;9.43;3.83;;;;;;;;;;6317786;22;20037;-82
2023/01/04 10:21:40;;;;;;;7.18;2.75;;;;;;;;;;6345826;22;20144;-82
2023/01/04 10:24:09;;;;;;;9.20;2.87;;;;;;;;;;6345407;22;20066;-83
2023/01/04 10:26:58;;;;;;;6.28;3.03;;;;;;;;;;6317604;22;20066;-83
2023/01/04 10:29:27;;;;;;;6.38;3.00;;;;;;;;;;6345166;22;20011;-82
2023/01/04 10:31:59;;;;;;;8.70;2.97;;;;;;;;;;6318073;22;20475;-82
2023/01/04 10:34:36;;;;;;;7.60;2.78;;;;;;;;;;6345470;22;20030;-83
2023/01/04 10:37:09;;;;;;;8.15;2.33;;;;;;;;;;6346388;22;20128;-83
2023/01/04 10:39:36;;;;;;;9.15;3.13;;;;;;;;;;6319900;22;20751;-83
2023/01/04 10:42:09;;;;;;;7.20;3.03;;;;;;;;;;6345052;22;20029;-81
2023/01/04 10:44:40;;;;;;;9.18;3.03;;;;;;;;;;6318464;22;20023;-83
2023/01/04 10:47:18;;;;;;;5.95;2.80;;;;;;;;;;6346295;22;20037;-83
2023/01/04 10:49:44;;;;;;;7.60;2.67;;;;;;;;;;6319417;22;20038;-82
2023/01/04 10:52:16;;;;;;;5.13;2.78;;;;;;;;;;6342517;22;20035;-83
2023/01/04 10:54:49;;;;;;;6.63;2.90;;;;;;;;;;6344683;22;20029;-81
2023/01/04 10:57:18;;;;;;;7.28;3.00;;;;;;;;;;6344525;22;20026;-82
2023/01/04 11:00:06;;;;;;;6.25;2.53;;;;;;;;;;6345774;22;20612;-81
2023/01/04 11:02:37;;;;;;;6.43;2.33;;;;;;;;;;6345723;22;20030;-81
2023/01/04 11:05:08;;;;;;;5.93;2.00;;;;;;;;;;6345311;22;20543;-83
2023/01/04 11:07:40;;;;;;;4.25;1.77;;;;;;;;;;6344561;22;20019;-81
2023/01/04 11:10:13;;;;;;;8.25;1.95;;;;;;;;;;6344814;22;20024;-82
2023/01/04 11:12:40;;;;;;;4.55;1.95;;;;;;;;;;6317229;22;20015;-83
2023/01/04 11:15:06;;;;;;;4.35;2.00;;;;;;;;;;6342353;22;20050;-82
2023/01/04 11:17:33;;;;;;;6.28;2.30;;;;;;;;;;6343140;22;20468;-83
2023/01/04 11:20:00;;;;;;;4.22;1.80;;;;;;;;;;6344042;22;20973;-81
2023/01/04 11:22:35;;;;;;;5.75;1.90;;;;;;;;;;6344152;22;20513;-82
2023/01/04 11:25:04;;;;;;;6.30;2.00;;;;;;;;;;6344412;22;20122;-81
2023/01/04 11:27:53;;;;;;;7.82;2.05;;;;;;;;;;6340613;22;20031;-81
2023/01/04 11:30:21;;;;;;;7.75;2.00;;;;;;;;;;6340798;22;20007;-81
2023/01/04 11:32:51;;;;;;;6.00;1.80;;;;;;;;;;6339734;22;20051;-79
2023/01/04 11:35:35;;;;;;;6.18;1.75;;;;;;;;;;6342449;22;20480;-80
2023/01/04 11:38:24;;;;;;;5.63;1.70;;;;;;;;;;6313427;22;20902;-80
2023/01/04 11:41:00;;;;;;;3.80;1.60;;;;;;;;;;6342575;22;20046;-80
2023/01/04 11:43:36;;;;;;;8.23;1.95;;;;;;;;;;6341801;22;20019;-79
2023/01/04 11:46:17;;;;;;;5.65;2.10;;;;;;;;;;6342243;22;20077;-79
2023/01/04 11:48:43;;;;;;;;;;;;;;;;;;6343520;22;20507;-80
2023/01/04 11:51:25;;;;;;;7.85;2.38;;;;;;;;;;6314296;22;46743;-80
2023/01/04 11:54:11;;;;;;;8.02;2.88;;;;;;;;;;6342716;22;20023;-79
2023/01/04 11:56:38;;;;;;;8.52;2.72;;;;;;;;;;6319952;22;20010;-80
2023/01/04 11:59:08;;;;;;;8.73;2.75;;;;;;;;;;6342682;22;20020;-80
2023/01/04 12:01:36;;;;;;;8.10;2.88;;;;;;;;;;6341057;22;20019;-79
2023/01/04 12:04:08;;;;;;;9.30;3.03;;;;;;;;;;6341656;22;20027;-80
2023/01/04 12:06:40;;;;;;;6.32;2.78;;;;;;;;;;6339762;22;20395;-80
2023/01/04 12:09:11;;;;;;;8.15;2.85;;;;;;;;;;6343227;22;20022;-81
2023/01/04 12:11:39;;;;;;;8.23;2.85;;;;;;;;;;6341268;22;20063;-81
2023/01/04 12:14:13;;;;;;;9.43;3.30;;;;;;;;;;6316498;22;20025;-80
2023/01/04 12:16:45;;;;;;;9.98;3.28;;;;;;;;;;6343166;22;20054;-81
2023/01/04 12:19:16;;;;;;;9.43;3.08;;;;;;;;;;6344467;22;20023;-80
2023/01/04 12:21:44;;;;;;;9.95;3.00;;;;;;;;;;6344050;22;20023;-80
2023/01/04 12:24:15;;;;;;;6.97;2.65;;;;;;;;;;6317450;22;20033;-80
2023/01/04 12:26:41;;;;;;;;;;;;;;;;;;6344768;22;20058;-80
2023/01/04 12:29:23;;;;;;;12.68;2.78;;;;;;;;;;6315770;22;48005;-81
2023/01/04 12:31:50;;;;;;;7.15;2.38;;;;;;;;;;6317994;22;20763;-81
2023/01/04 12:34:24;;;;;;;5.72;2.40;;;;;;;;;;6346451;22;20038;-80
2023/01/04 12:36:51;;;;;;;7.25;2.35;;;;;;;;;;6345586;22;20023;-81
2023/01/04 12:39:27;;;;;;;9.48;2.50;;;;;;;;;;6318470;22;20016;-81
2023/01/04 12:41:59;;;;;;;10.48;3.20;;;;;;;;;;6346902;22;20019;-81
2023/01/04 12:44:50;;;;;;;7.32;2.35;;;;;;;;;;6345131;22;20023;-81
2023/01/04 12:50:17;;;;;;;7.82;2.10;;;;;;;;;;6345564;22;20147;-81
2023/01/04 12:52:46;;;;;;;;;;;;;;;;;;6346557;22;20796;-81
2023/01/04 12:55:32;;;;;;;9.55;1.98;;;;;;;;;;6347097;22;19915;-81
2023/01/04 12:58:22;;;;;;;9.95;2.40;;;;;;;;;;6344802;22;20019;-81
2023/01/04 13:01:19;;;;;;;8.82;2.17;;;;;;;;;;6346149;22;20030;-81
2023/01/04 13:03:48;;;;;;;11.23;2.75;;;;;;;;;;6346862;22;20783;-80
2023/01/04 13:06:18;;;;;;;10.43;2.33;;;;;;;;;;6347368;22;20027;-81
2023/01/04 13:08:46;;;;;;;10.45;2.20;;;;;;;;;;6345816;22;20019;-81
2023/01/04 13:11:31;;;;;;;13.45;2.10;;;;;;;;;;6346669;22;20024;-80
2023/01/04 13:14:01;;;;;;;11.57;3.03;;;;;;;;;;6346950;22;20101;-81
2023/01/04 13:16:43;;;;;;;16.15;3.13;;;;;;;;;;6346370;22;20026;-81
2023/01/04 13:19:17;;;;;;;10.07;2.50;;;;;;;;;;6346330;22;20026;-80
2023/01/04 13:21:44;;;;;;;7.30;2.30;;;;;;;;;;6318404;22;20027;-81
2023/01/04 13:24:19;;;;;;;7.70;1.70;;;;;;;;;;6346302;22;20019;-81
2023/01/04 13:26:47;;;;;;;7.22;2.03;;;;;;;;;;6345456;22;20015;-81
2023/01/04 13:29:15;;;;;;;9.27;3.40;;;;;;;;;;6319108;22;20104;-81
2023/01/04 13:31:45;;;;;;;9.75;1.80;;;;;;;;;;6319270;22;20023;-81
2023/01/04 13:34:14;;;;;;;11.88;2.05;;;;;;;;;;6320252;22;20081;-81
2023/01/04 13:36:40;;;;;;;9.43;1.88;;;;;;;;;;6345288;22;20023;-81
2023/01/04 13:39:07;;;;;;;9.82;1.98;;;;;;;;;;6345497;22;20102;-80
2023/01/04 13:41:33;;;;;;;6.80;1.63;;;;;;;;;;6345268;22;20023;-81
2023/01/04 13:44:00;;;;;;;9.70;1.98;;;;;;;;;;6346708;22;20120;-81
2023/01/04 13:46:26;;;;;;;9.27;1.65;;;;;;;;;;6346255;22;20022;-81
2023/01/04 13:48:57;;;;;;;13.73;2.40;;;;;;;;;;6317989;22;20019;-81
2023/01/04 13:51:33;;;;;;;7.65;1.70;;;;;;;;;;6345853;22;20050;-80
2023/01/04 13:54:04;;;;;;;7.53;1.67;;;;;;;;;;6346525;22;20524;-81
2023/01/04 13:56:32;;;;;;;6.53;1.33;;;;;;;;;;6346646;22;20033;-81
2023/01/04 13:58:59;;;;;;;8.38;1.85;;;;;;;;;;6318882;22;20027;-81
2023/01/04 14:01:27;;;;;;;13.82;1.90;;;;;;;;;;6347098;22;20031;-80
2023/01/04 14:03:56;;;;;;;14.75;1.83;;;;;;;;;;6316443;22;20077;-81
2023/01/04 14:06:27;;;;;;;7.55;1.45;;;;;;;;;;6345713;22;20071;-80
2023/01/04 14:09:26;;;;;;;7.68;1.67;;;;;;;;;;6320640;22;20023;-81
2023/01/04 14:11:58;;;;;;;9.85;1.65;;;;;;;;;;6266627;22;20035;-81
2023/01/04 14:14:39;;;;;;;10.17;1.60;;;;;;;;;;6342849;22;20066;-81
2023/01/04 14:17:11;;;;;;;9.10;1.65;;;;;;;;;;6316457;22;20030;-81
2023/01/04 14:19:43;;;;;;;8.13;1.48;;;;;;;;;;6344498;22;20027;-81
2023/01/04 14:22:22;;;;;;;9.35;1.60;;;;;;;;;;6319039;22;20038;-80
2023/01/04 14:24:49;;;;;;;8.95;1.60;;;;;;;;;;6342503;22;20019;-81
2023/01/04 14:27:41;;;;;;;8.80;1.80;;;;;;;;;;6339331;22;20023;-79
2023/01/04 14:30:16;;;;;;;8.50;1.92;;;;;;;;;;6339165;22;20566;-81
2023/01/04 14:32:56;;;;;;;10.38;2.42;;;;;;;;;;6340391;22;20069;-81
2023/01/04 14:35:23;;;;;;;9.83;1.57;;;;;;;;;;6343168;22;20039;-81
2023/01/04 14:37:49;;;;;;;10.15;1.77;;;;;;;;;;6340012;22;20015;-79
2023/01/04 14:40:27;;;;;;;12.30;1.67;;;;;;;;;;6314720;22;20030;-81
2023/01/04 14:42:54;;;;;;;12.00;1.55;;;;;;;;;;6343161;22;20027;-80
2023/01/04 14:45:20;;;;;;;13.70;2.03;;;;;;;;;;6342042;22;20054;-81
2023/01/04 14:47:46;;;;;;;16.55;3.80;;;;;;;;;;6340836;22;20031;-81
2023/01/04 14:50:13;;;;;;;10.73;2.17;;;;;;;;;;6314550;22;20107;-81
2023/01/04 14:52:40;;;;;;;11.77;3.08;;;;;;;;;;6313953;22;20783;-81
2023/01/04 14:55:06;;;;;;;7.57;2.60;;;;;;;;;;6342590;22;20041;-81
2023/01/04 14:57:36;;;;;;;9.07;2.30;;;;;;;;;;6345008;22;20035;-80
2023/01/04 15:00:03;;;;;;;9.55;1.60;;;;;;;;;;6318280;22;20738;-81
2023/01/04 15:02:32;;;;;;;13.52;2.83;;;;;;;;;;6345086;22;20031;-81
2023/01/04 15:04:59;;;;;;;14.77;3.70;;;;;;;;;;6344712;22;20023;-81
2023/01/04 15:07:34;;;;;;;16.20;2.95;;;;;;;;;;6346158;22;20018;-80
2023/01/04 15:10:01;;;;;;;15.32;5.40;;;;;;;;;;6345078;22;20031;-81
2023/01/04 15:12:27;;;;;;;16.38;3.95;;;;;;;;;;6344273;22;20526;-80
2023/01/04 15:14:53;;;;;;;13.52;3.70;;;;;;;;;;6343145;22;20038;-81
2023/01/04 15:17:20;;;;;;;13.02;2.88;;;;;;;;;;6343943;22;20027;-81
2023/01/04 15:19:46;;;;;;;14.75;3.45;;;;;;;;;;6318037;22;20143;-81
2023/01/04 15:22:12;;;;;;;67.97;39.08;;;;;;;;;;6342714;22;20023;-81
2023/01/04 15:24:39;;;;;;;23.05;10.55;;;;;;;;;;6343723;22;20472;-81
2023/01/04 15:27:05;;;;;;;18.58;3.58;;;;;;;;;;6314072;22;20042;-81
2023/01/04 15:29:33;;;;;;;14.50;2.78;;;;;;;;;;6343540;22;20448;-81
2023/01/04 15:31:59;;;;;;;15.23;3.50;;;;;;;;;;6344081;22;20061;-81
2023/01/04 15:34:26;;;;;;;15.88;2.88;;;;;;;;;;6344154;22;20019;-81
2023/01/04 15:36:52;;;;;;;20.15;2.40;;;;;;;;;;6344243;22;20035;-81
2023/01/04 15:39:18;;;;;;;14.77;2.70;;;;;;;;;;6344321;22;20062;-81
2023/01/04 15:44:30;;;;;;;22.25;5.82;;;;;;;;;;6344213;22;20054;-81
2023/01/04 15:46:58;;;;;;;20.60;5.07;;;;;;;;;;6315211;22;20027;-81